Ephrata, Washington
Current Conditions -  °F | °C
As of 9:53 AM on Friday 31 Oct 2014 (Local Time) from KEPH Reporting Station
Haze Haze  
Wind Chill: 50°   Ceiling: 200
Heat Index: 50°   Visibility: 3mi
Dew Point: 49°   Wind: 3mph
Humidity: 96%   Direction: 80°E
Pressure: 29.72"   Gusts: NA
Location:  47.32°N, 119.55°W
Report Text: KEPH 311653Z AUTO 08003KT 3SM BR OVC002 10/09 A2972 RMK AO2 RAB20E44 SLP066 P0001 T01000094
Loading
Personal Weather Stations






























Interactive Weather Map New forecast layout! Learn more

10-Day Weather Forecast

Advertisements
Track Severe Weather on mobile